Statewide Weather Sensors

Route Weather Station Name Milepost Date / Time Surface Status Surface Temp Precip Intensity Wind Avg Wind Gust Dir Dewpoint Humidity Air Temp Visibility
I 25 Wyo Hill 3.52 May 13, 2021 03:00 pm     None None 19 mph 27 mph NW 26.6°F 23% 64.4°F > 1/2 mi
I 25 Whitaker 30.2 May 13, 2021 03:00 pm Dry 95.4°F None None 22 mph 32 mph NW 28.4°F 25% 64.4°F > 1/2 mi
I 25 Bear Creek 46.77 May 13, 2021 03:00 pm Dry 103.6°F None None 23 mph 30 mph W 26.6°F 22% 68.0°F > 1/2 mi
I 25 Bordeaux 70.8 May 13, 2021 03:00 pm Dry 107.1°F None None 13 mph 20 mph N 33.8°F 26% 68.0°F > 1/2 mi
I 25 Coleman 98.7 May 13, 2021 03:00 pm Dry 99.0°F None None 8 mph 19 mph W 33.8°F 30% 66.2°F > 1/2 mi
I 25 Platte/Converse County Line 119.9 May 13, 2021 03:00 pm Dry 102.4°F None None 11 mph 11 mph SW 44.6°F 24% 73.4°F > 1/2 mi
I 25 Deer Creek 164.2 May 13, 2021 03:00 pm Dry 102.6°F None None 19 mph 25 mph W       > 1/2 mi
I 25 Hat Six 181.67 May 13, 2021 03:00 pm Dry 91.4°F None   17 mph 28 mph NW 23.0°F 16% 71.6°F  
I 25 F Street Hill 189.51 May 13, 2021 03:00 pm Dry 84.9°F None None 16 mph 25 mph W 19.4°F 15% 68.0°F > 1/2 mi
I 25 Twenty Mile Hill 207.2 May 13, 2021 03:00 pm     None None 9 mph 19 mph N 23.0°F 17% 68.0°F > 1/2 mi
I 25 Smokey Gap 228.58 May 13, 2021 03:00 pm Dry 91.2°F None None 17 mph 27 mph NW 30.2°F 23% 68.0°F > 1/2 mi
I 25 Tisdale 238.87 May 13, 2021 03:01 pm Dry 82.9°F None None 17 mph 28 mph N 32.0°F 26% 68.0°F > 1/2 mi
I 25 I-25 Divide 267.3 May 13, 2021 03:00 pm N/A   None None 21 mph 27 mph N 35.6°F 33% 64.4°F > 1/2 mi
I 80 Evanston POE .06 May 13, 2021 03:00 pm Dry 77.2°F None   1 mph 20 mph W 17.6°F 14% 68.0°F > 1/2 mi
I 80 Evanston 4.2 May 13, 2021 03:00 pm N/A   None None 17 mph 25 mph W 17.6°F 14% 69.8°F > 1/2 mi
I 80 Bear River Drive 6.94 May 13, 2021 03:00 pm Dry 80.2°F None   1 mph 23 mph NW 19.4°F 15% 68.0°F > 1/2 mi
I 80 Painter 10.16 May 13, 2021 03:00 pm Dry 95.9°F None None 19 mph 26 mph W 15.8°F 13% 69.8°F > 1/2 mi
I 80 First Divide 13.86 May 13, 2021 03:00 pm     None None 19 mph 30 mph NW 15.8°F 14% 64.4°F > 1/2 mi
I 80 US 189 Interchange 17.66 May 13, 2021 03:00 pm Dry 100.0°F None None 22 mph 27 mph W 17.6°F 14% 68.0°F > 1/2 mi
I 80 Coal Road 20.95 May 13, 2021 03:00 pm Dry 102.0°F None None 19 mph 24 mph W 17.6°F 14% 68.0°F > 1/2 mi
I 80 Leroy 23.35 May 13, 2021 03:00 pm Dry 88.2°F None None 12 mph 21 mph W 17.6°F 14% 68.0°F > 1/2 mi
I 80 French 27.6 May 13, 2021 03:00 pm Dry 84.2°F None None 9 mph 18 mph NW 19.4°F 16% 66.2°F > 1/2 mi
I 80 Church Butte 52.65 May 13, 2021 03:00 pm N/A   None None 18 mph 28 mph SW 15.8°F 13% 69.8°F > 1/2 mi
I 80 Peru Hill 82.31 May 13, 2021 03:00 pm     None None 17 mph 31 mph W 19.4°F 14% 69.8°F > 1/2 mi
I 80 Green River Tunnel 90.5 May 13, 2021 03:00 pm Dry 96.3°F None None 15 mph 30 mph S 19.4°F 14% 69.8°F > 1/2 mi
I 80 Rock Springs West 97.9 May 13, 2021 03:00 pm N/A   None None 12 mph 24 mph W 17.6°F 14% 68.0°F > 1/2 mi
I 80 Baxter Road 111.5 May 13, 2021 03:00 pm     None None 25 mph 28 mph W 17.6°F 14% 68.0°F > 1/2 mi
I 80 Mile Marker 124.5 124.5 May 13, 2021 03:00 pm N/A   None None 14 mph 26 mph W 17.6°F 15% 68.0°F > 1/2 mi
I 80 Point of Rocks 129.8 May 13, 2021 03:00 pm N/A   None None 16 mph 25 mph W 21.2°F 16% 69.8°F > 1/2 mi
I 80 Bitter Creek 141.83 May 13, 2021 03:00 pm Dry 92.5°F None None 22 mph 30 mph W 15.8°F 15% 62.6°F > 1/2 mi
I 80 Tipton 156.72 May 13, 2021 03:00 pm Dry 91.2°F None None 11 mph 21 mph W 19.4°F 18% 64.4°F > 1/2 mi
I 80 Continental Divide 184.3 May 13, 2021 03:00 pm     None None 11 mph 24 mph NW 21.2°F 19% 64.4°F > 1/2 mi
I 80 Sinclair 221.7 May 13, 2021 03:00 pm N/A   None None 16 mph 26 mph W 23.0°F 20% 64.4°F > 1/2 mi
I 80 Walcott Junction 234.66 May 13, 2021 03:00 pm N/A   None None 24 mph 33 mph W 23.0°F 23% 60.8°F > 1/2 mi
I 80 Dana Ridge 244.8 May 13, 2021 03:00 pm Dry 79.0°F None None 17 mph 24 mph W 21.2°F 24% 59.0°F > 1/2 mi
I 80 Mile Marker 249.1 249.1 May 13, 2021 03:00 pm N/A   None None 22 mph 30 mph NW 21.2°F 23% 59.0°F > 1/2 mi
I 80 Halleck Ridge 252.16 May 13, 2021 03:00 pm N/A   None   29 mph 45 mph W 21.2°F 24% 59.0°F  
I 80 Elk Mountain 256.17 May 13, 2021 03:00 pm Wet 91.6°F None None 20 mph 34 mph SW 21.2°F 22% 60.8°F > 1/2 mi
I 80 County Road 402 262 May 13, 2021 03:00 pm Dry 98.6°F None None 17 mph 31 mph SW 23.0°F 24% 59.0°F > 1/2 mi
I 80 Wagonhound 266.58 May 13, 2021 03:00 pm Dry 93.0°F None None 22 mph 29 mph W 23.0°F 25% 59.0°F > 1/2 mi
I 80 Foote Creek 269.5 May 13, 2021 03:00 pm Dry 88.0°F None None 21 mph 24 mph SW 23.0°F 26% 57.2°F > 1/2 mi
I 80 Arlington 271.8 May 13, 2021 03:00 pm Dry 86.7°F None None 15 mph 29 mph W 23.0°F 23% 59.0°F > 1/2 mi
I 80 Arlington East 273.85 May 13, 2021 03:00 pm Dry 87.8°F None None 22 mph 30 mph W 23.0°F 26% 57.2°F > 1/2 mi
I 80 Cooper Cove 279.36 May 13, 2021 03:00 pm Dry 77.0°F None   26 mph 33 mph W 50.0°F 23% 57.2°F > 1/2 mi
I 80 Strouss Hill 283.75 May 13, 2021 03:00 pm Dry 90.7°F None None 29 mph 43 mph W 23.0°F 27% 57.2°F > 1/2 mi
I 80 Quealy Dome 289.5 May 13, 2021 03:00 pm Dry 98.1°F None None 24 mph 34 mph NW 24.8°F 24% 60.8°F > 1/2 mi
I 80 Herrick Lane 297.66 May 13, 2021 03:00 pm Dry 73.4°F None None 22 mph 33 mph W 24.8°F 26% 59.0°F > 1/2 mi
I 80 Summit East 325.8 May 13, 2021 03:00 pm Dry 70.5°F None None 20 mph 29 mph W 21.2°F 29% 53.6°F > 1/2 mi
I 80 Vedauwoo 329.4 May 13, 2021 03:00 pm Dry 72.9°F None None 21 mph 30 mph NW 23.0°F 28% 55.4°F > 1/2 mi
I 80 Lone Tree 333.32 May 13, 2021 03:00 pm Dry 77.2°F None None 24 mph 32 mph W 23.0°F 26% 57.2°F > 1/2 mi
I 80 Buford East 336.1 May 13, 2021 03:00 pm Dry 81.9°F None None 25 mph 33 mph W 21.2°F 24% 59.0°F > 1/2 mi
I 80 Remount Road 340.5 May 13, 2021 03:00 pm Dry 92.7°F None None 24 mph 28 mph SE 24.8°F 24% 60.8°F > 1/2 mi
I 80 Otto 347.69 May 13, 2021 03:00 pm Dry 87.4°F None None 18 mph 27 mph N 23.0°F 22% 62.6°F > 1/2 mi
I 80 MP 353 353 May 13, 2021 03:00 pm Dry 97.3°F None None 17 mph 28 mph W 30.2°F 27% 64.4°F > 1/2 mi
I 80 Cheyenne East 373 May 13, 2021 03:00 pm Dry 85.6°F None None 11 mph 16 mph NW 30.2°F 26% 66.2°F > 1/2 mi
I 90 Montana State Line .1 May 13, 2021 03:00 pm Chemically Wet 106.2°F None None 11 mph 18 mph NW 33.8°F 33% 62.6°F > 1/2 mi
I 90 Pompey Creek 35.3 May 13, 2021 03:00 pm N/A   None None 14 mph 17 mph NW   41% 48.2°F > 1/2 mi
I 90 Sheridan/Johnson County Line 41.33 May 13, 2021 03:00 pm Dry 95.2°F None None 14 mph 17 mph SE 32.0°F 51% 48.2°F > 1/2 mi
I 90 Piney Creek Interchange 44.7 May 13, 2021 03:00 pm Dry 94.1°F None None 11 mph 18 mph N 37.4°F 43% 60.8°F > 1/2 mi
I 90 Kearny Divide 45.33 May 13, 2021 03:00 pm Dry   None None 12 mph 22 mph NW   2% 46.4°F > 1/2 mi
I 90 Indian Creek Road 83.3 May 13, 2021 03:00 pm Dry 103.5°F None None 19 mph 29 mph N 37.4°F 40% 60.8°F > 1/2 mi
I 90 Dead Horse 91.5 May 13, 2021 03:00 pm Dry 101.5°F None None 6 mph 17 mph N 37.4°F 33% 66.2°F > 1/2 mi
I 90 Mile Marker 108 108 May 13, 2021 03:00 pm N/A   None None 21 mph 27 mph N 39.2°F 47% 59.0°F > 1/2 mi
I 90 Inyan Kara 170.5 May 13, 2021 03:00 pm Dry 76.6°F None   17 mph 26 mph W 21.2°F 20% 60.8°F  
I 90 Beulah 205.9 May 13, 2021 03:00 pm Dry 84.9°F None None 11 mph 19 mph E 37.4°F 36% 64.4°F > 1/2 mi
US 14 Ucross 27.83 May 13, 2021 03:00 pm Dry 98.2°F None None 7 mph 11 mph NW 39.2°F 35% 68.0°F > 1/2 mi
US 14 Granite Pass 38.95 May 13, 2021 03:00 pm N/A   None None 9 mph 24 mph NE 17.6°F 31% 46.4°F > 1/2 mi
US 16 Big Horn County Line 44.01 May 13, 2021 03:00 pm Dry 84.9°F None None 6 mph 16 mph W 19.4°F 30% 50.0°F > 1/2 mi
US 191 Farson 40.45 May 13, 2021 03:00 pm N/A   None None 23 mph 45 mph W 19.4°F 16% 66.2°F > 1/2 mi
US 191 Warren Bridge 119.9 May 13, 2021 03:00 pm Dry 79.3°F None None 30 mph 52 mph W 21.2°F 28% 53.6°F > 1/2 mi
US 20 Natrona 30 May 13, 2021 03:00 pm Dry 104.7°F None None 15 mph 29 mph W 19.4°F 14% 69.8°F > 1/2 mi
US 20 Hiland 57.4 May 13, 2021 03:00 pm Dry 106.2°F None None 15 mph 23 mph W       > 1/2 mi
US 20 Van Tassell 57.85 May 13, 2021 03:00 pm Dry 93.2°F None None 5 mph 12 mph SE 37.4°F 33% 66.2°F > 1/2 mi
US 26 Wind River Lake 26.05 May 13, 2021 03:00 pm Dry 98.1°F None None 12 mph 21 mph N 17.6°F 32% 46.4°F > 1/2 mi
US 287 Pumpkin Vine 420.4 May 13, 2021 03:00 pm N/A   None None 24 mph 35 mph N 21.2°F 24% 57.2°F > 1/2 mi
US 30 Sage Junction 34 May 13, 2021 03:00 pm N/A   None None 13 mph 20 mph W 23.0°F 17% 69.8°F > 1/2 mi
US 30 Nugget Canyon 39.7 May 13, 2021 03:00 pm     None None 17 mph 33 mph N 19.4°F 15% 68.0°F > 1/2 mi
US 85 Gun Barrel 46.8 May 13, 2021 03:00 pm Dry 86.0°F None None 14 mph 21 mph N 26.6°F 21% 68.0°F > 1/2 mi
US 85 Four Corners 247.2 May 13, 2021 03:00 pm Dry 79.2°F None None 3 mph 9 mph N 30.2°F 35% 57.2°F > 1/2 mi
WY 120 Meeteetse 61.5 May 13, 2021 03:00 pm     None   6 mph 19 mph N 30.2°F 27% 62.6°F > 1/2 mi
WY 210 Wildcat Trail 21.52 May 13, 2021 03:00 pm Dry 97.5°F None None 25 mph 37 mph W 23.0°F 22% 60.8°F > 1/2 mi
WY 210 Hynds Lodge Road 24.55 May 13, 2021 03:00 pm N/A   None None 11 mph 29 mph NW 23.0°F 23% 60.8°F > 1/2 mi
WY 22 Teton Pass 11.2 May 13, 2021 03:00 pm Dry 91.6°F None None 3 mph 13 mph SW 21.2°F 29% 51.8°F > 1/2 mi
WY 220 Pathfinder Hill 80.1 May 13, 2021 03:00 pm Dry 104.2°F None None 24 mph 28 mph W 23.0°F 18% 68.0°F > 1/2 mi
WY 230 Skyline 230 113.2 May 13, 2021 03:00 pm Dry 83.8°F None None 23 mph 35 mph W 21.2°F 24% 57.2°F > 1/2 mi
WY 258 Outer Drive 13.77 May 13, 2021 03:00 pm Dry 93.2°F None None 17 mph 22 mph W 19.4°F 15% 68.0°F > 1/2 mi
WY 28 New South Pass 41.4 May 13, 2021 03:00 pm Dry 73.2°F None None 11 mph 14 mph W 32.0°F 42% 53.6°F > 1/2 mi
WY 28 Lower Red Canyon 59.71 May 13, 2021 03:00 pm Dry 95.4°F None None 12 mph 25 mph NW 24.8°F 23% 62.6°F > 1/2 mi
WY 296 Chief Joseph 32.96 May 13, 2021 03:00 pm Trace Moisture 68.5°F None None 13 mph 15 mph SE 32.0°F 59% 46.4°F > 1/2 mi
WY 372 Shute Creek 34 May 13, 2021 03:00 pm N/A   None None 16 mph 31 mph W 21.2°F 16% 68.0°F > 1/2 mi
WY 387 Pine Tree Junction 131.79 May 13, 2021 12:48 pm                      
WY 487 Shirley Rim 37 May 13, 2021 03:00 pm Dry 92.8°F None None 24 mph 35 mph NW 17.6°F 18% 60.8°F > 1/2 mi
WY 59 Belle Fourche 87 May 13, 2021 03:00 pm Dry 84.9°F None   21 mph 34 mph N 37.4°F 37% 62.6°F  
WY 789 Beaver Rim 48.1 May 13, 2021 03:00 pm     None None 17 mph 26 mph W 12.2°F 13% 64.4°F > 1/2 mi

Contact Us
Copyright 2021 Disclaimer Privacy Policy Media